LFMY 221130Z AUTO 21004KT 150V280 9999 BKN025 15/08 Q1032

ElémentsDécodage
LFMY Station météo située sur l'aérodrome de SALON-DE-PROVENCE
221130Z émis le 22 du mois à 11h30 UTC
AUTO Bulletin édité par un automate
21004KT vent du 210°, 04 noeuds
150V280 vent de direction variable entre 150° et 280°
9999 visibilité horizontale supérieure à 10 Km
BKN025 nuages morcelés (5/8 à 7/8) à 2500 pieds
15/08 température 15°C, point de rosée 08°C
 soit une humidité relative de 63%
Q1032 la pression au niveau de la mer (QNH) est de 1032 hPa